sensor_id;sensor_type;location;lat;lon;timestamp;P1;durP1;ratioP1;P2;durP2;ratioP2
75220;SDS011;63802;53.232;6.570;2023-08-06T00:00:04;20.05;;;8.85;;
75220;SDS011;63802;53.232;6.570;2023-08-06T00:02:30;19.30;;;8.90;;
75220;SDS011;63802;53.232;6.570;2023-08-06T00:04:56;19.17;;;8.65;;
75220;SDS011;63802;53.232;6.570;2023-08-06T00:07:21;13.90;;;7.70;;
75220;SDS011;63802;53.232;6.570;2023-08-06T00:09:47;15.82;;;8.20;;
75220;SDS011;63802;53.232;6.570;2023-08-06T00:12:12;17.40;;;8.65;;
75220;SDS011;63802;53.232;6.570;2023-08-06T00:14:38;16.70;;;8.18;;
75220;SDS011;63802;53.232;6.570;2023-08-06T00:17:06;16.55;;;8.05;;
75220;SDS011;63802;53.232;6.570;2023-08-06T00:19:32;19.42;;;9.15;;
75220;SDS011;63802;53.232;6.570;2023-08-06T00:21:57;17.35;;;8.07;;
75220;SDS011;63802;53.232;6.570;2023-08-06T00:24:23;18.42;;;8.25;;
75220;SDS011;63802;53.232;6.570;2023-08-06T00:26:51;17.40;;;8.38;;
75220;SDS011;63802;53.232;6.570;2023-08-06T00:29:17;15.88;;;8.52;;
75220;SDS011;63802;53.232;6.570;2023-08-06T00:31:43;18.17;;;8.27;;
75220;SDS011;63802;53.232;6.570;2023-08-06T00:34:08;20.15;;;8.77;;
75220;SDS011;63802;53.232;6.570;2023-08-06T00:36:33;17.67;;;8.40;;
75220;SDS011;63802;53.232;6.570;2023-08-06T00:38:59;16.27;;;8.40;;
75220;SDS011;63802;53.232;6.570;2023-08-06T00:41:24;14.95;;;7.63;;
75220;SDS011;63802;53.232;6.570;2023-08-06T00:43:50;16.17;;;7.85;;
75220;SDS011;63802;53.232;6.570;2023-08-06T00:46:19;17.15;;;8.00;;
75220;SDS011;63802;53.232;6.570;2023-08-06T00:48:45;15.55;;;7.22;;
75220;SDS011;63802;53.232;6.570;2023-08-06T00:51:18;15.60;;;8.40;;
75220;SDS011;63802;53.232;6.570;2023-08-06T00:53:44;15.05;;;8.05;;
75220;SDS011;63802;53.232;6.570;2023-08-06T00:56:10;15.60;;;7.60;;
75220;SDS011;63802;53.232;6.570;2023-08-06T00:58:36;16.15;;;8.35;;
75220;SDS011;63802;53.232;6.570;2023-08-06T01:01:02;15.30;;;8.27;;
75220;SDS011;63802;53.232;6.570;2023-08-06T01:03:27;17.90;;;8.48;;
75220;SDS011;63802;53.232;6.570;2023-08-06T01:05:53;16.63;;;7.90;;
75220;SDS011;63802;53.232;6.570;2023-08-06T01:08:24;15.73;;;8.25;;
75220;SDS011;63802;53.232;6.570;2023-08-06T01:11:14;18.05;;;8.82;;
75220;SDS011;63802;53.232;6.570;2023-08-06T01:14:21;17.52;;;7.93;;
75220;SDS011;63802;53.232;6.570;2023-08-06T01:16:53;17.08;;;7.72;;
75220;SDS011;63802;53.232;6.570;2023-08-06T01:19:20;18.50;;;8.40;;
75220;SDS011;63802;53.232;6.570;2023-08-06T01:21:46;19.02;;;8.55;;
75220;SDS011;63802;53.232;6.570;2023-08-06T01:24:11;15.60;;;8.25;;
75220;SDS011;63802;53.232;6.570;2023-08-06T01:26:45;17.20;;;8.45;;
75220;SDS011;63802;53.232;6.570;2023-08-06T01:29:26;23.80;;;9.35;;
75220;SDS011;63802;53.232;6.570;2023-08-06T01:31:56;18.17;;;8.68;;
75220;SDS011;63802;53.232;6.570;2023-08-06T01:34:24;17.60;;;8.98;;
75220;SDS011;63802;53.232;6.570;2023-08-06T01:36:52;18.57;;;8.40;;
75220;SDS011;63802;53.232;6.570;2023-08-06T01:39:18;16.10;;;9.15;;
75220;SDS011;63802;53.232;6.570;2023-08-06T01:41:47;18.45;;;8.77;;
75220;SDS011;63802;53.232;6.570;2023-08-06T01:44:13;17.48;;;9.32;;
75220;SDS011;63802;53.232;6.570;2023-08-06T01:46:40;24.75;;;9.20;;
75220;SDS011;63802;53.232;6.570;2023-08-06T01:49:05;17.55;;;9.43;;
75220;SDS011;63802;53.232;6.570;2023-08-06T01:51:31;20.15;;;9.27;;
75220;SDS011;63802;53.232;6.570;2023-08-06T01:53:56;20.20;;;9.15;;
75220;SDS011;63802;53.232;6.570;2023-08-06T01:56:22;19.92;;;10.25;;
75220;SDS011;63802;53.232;6.570;2023-08-06T01:58:47;16.27;;;8.48;;
75220;SDS011;63802;53.232;6.570;2023-08-06T02:01:13;19.00;;;9.63;;
75220;SDS011;63802;53.232;6.570;2023-08-06T02:03:38;20.55;;;9.65;;
75220;SDS011;63802;53.232;6.570;2023-08-06T02:06:04;22.10;;;10.13;;
75220;SDS011;63802;53.232;6.570;2023-08-06T02:08:29;23.08;;;10.35;;
75220;SDS011;63802;53.232;6.570;2023-08-06T02:10:55;23.83;;;10.52;;
75220;SDS011;63802;53.232;6.570;2023-08-06T02:13:20;20.67;;;10.98;;
75220;SDS011;63802;53.232;6.570;2023-08-06T02:15:48;22.58;;;10.63;;
75220;SDS011;63802;53.232;6.570;2023-08-06T02:18:14;23.08;;;10.43;;
75220;SDS011;63802;53.232;6.570;2023-08-06T02:20:40;22.48;;;10.10;;
75220;SDS011;63802;53.232;6.570;2023-08-06T02:23:06;21.58;;;10.77;;
75220;SDS011;63802;53.232;6.570;2023-08-06T02:25:32;21.58;;;10.15;;
75220;SDS011;63802;53.232;6.570;2023-08-06T02:27:57;24.08;;;10.93;;
75220;SDS011;63802;53.232;6.570;2023-08-06T02:30:23;22.33;;;11.75;;
75220;SDS011;63802;53.232;6.570;2023-08-06T02:32:48;23.02;;;10.30;;
75220;SDS011;63802;53.232;6.570;2023-08-06T02:35:14;23.40;;;10.57;;
75220;SDS011;63802;53.232;6.570;2023-08-06T02:37:39;21.55;;;10.90;;
75220;SDS011;63802;53.232;6.570;2023-08-06T02:40:05;24.52;;;11.20;;
75220;SDS011;63802;53.232;6.570;2023-08-06T02:42:30;22.13;;;10.25;;
75220;SDS011;63802;53.232;6.570;2023-08-06T02:44:56;24.00;;;11.20;;
75220;SDS011;63802;53.232;6.570;2023-08-06T02:47:21;22.33;;;11.88;;
75220;SDS011;63802;53.232;6.570;2023-08-06T02:49:47;21.95;;;10.70;;
75220;SDS011;63802;53.232;6.570;2023-08-06T02:52:13;21.58;;;11.00;;
75220;SDS011;63802;53.232;6.570;2023-08-06T02:54:38;22.38;;;10.95;;
75220;SDS011;63802;53.232;6.570;2023-08-06T02:57:04;24.98;;;12.68;;
75220;SDS011;63802;53.232;6.570;2023-08-06T02:59:31;25.90;;;11.75;;
75220;SDS011;63802;53.232;6.570;2023-08-06T03:01:57;22.88;;;11.07;;
75220;SDS011;63802;53.232;6.570;2023-08-06T03:04:22;25.58;;;11.55;;
75220;SDS011;63802;53.232;6.570;2023-08-06T03:06:51;23.48;;;10.50;;
75220;SDS011;63802;53.232;6.570;2023-08-06T03:09:17;24.08;;;10.50;;
75220;SDS011;63802;53.232;6.570;2023-08-06T03:11:43;22.73;;;11.27;;
75220;SDS011;63802;53.232;6.570;2023-08-06T03:14:08;20.48;;;9.77;;
75220;SDS011;63802;53.232;6.570;2023-08-06T03:16:34;21.73;;;10.23;;
75220;SDS011;63802;53.232;6.570;2023-08-06T03:18:59;20.25;;;9.38;;
75220;SDS011;63802;53.232;6.570;2023-08-06T03:21:25;20.77;;;10.23;;
75220;SDS011;63802;53.232;6.570;2023-08-06T03:23:50;19.48;;;10.02;;
75220;SDS011;63802;53.232;6.570;2023-08-06T03:26:16;21.45;;;10.23;;
75220;SDS011;63802;53.232;6.570;2023-08-06T03:28:41;19.33;;;9.55;;
75220;SDS011;63802;53.232;6.570;2023-08-06T03:31:07;21.80;;;10.55;;
75220;SDS011;63802;53.232;6.570;2023-08-06T03:33:32;22.73;;;10.10;;
75220;SDS011;63802;53.232;6.570;2023-08-06T03:35:58;21.50;;;9.57;;
75220;SDS011;63802;53.232;6.570;2023-08-06T03:38:23;20.75;;;9.23;;
75220;SDS011;63802;53.232;6.570;2023-08-06T03:40:49;20.60;;;10.07;;
75220;SDS011;63802;53.232;6.570;2023-08-06T03:43:15;18.08;;;8.43;;
75220;SDS011;63802;53.232;6.570;2023-08-06T03:45:43;18.80;;;9.63;;
75220;SDS011;63802;53.232;6.570;2023-08-06T03:48:09;18.85;;;9.20;;
75220;SDS011;63802;53.232;6.570;2023-08-06T03:50:35;21.58;;;9.93;;
75220;SDS011;63802;53.232;6.570;2023-08-06T03:53:03;20.00;;;9.73;;
75220;SDS011;63802;53.232;6.570;2023-08-06T03:55:29;22.58;;;10.63;;
75220;SDS011;63802;53.232;6.570;2023-08-06T03:57:54;23.08;;;10.32;;
75220;SDS011;63802;53.232;6.570;2023-08-06T04:00:20;20.80;;;9.38;;
75220;SDS011;63802;53.232;6.570;2023-08-06T04:02:45;20.95;;;10.07;;
75220;SDS011;63802;53.232;6.570;2023-08-06T04:05:11;24.65;;;10.88;;
75220;SDS011;63802;53.232;6.570;2023-08-06T04:07:38;19.38;;;9.98;;
75220;SDS011;63802;53.232;6.570;2023-08-06T04:10:04;24.42;;;10.70;;
75220;SDS011;63802;53.232;6.570;2023-08-06T04:12:30;19.77;;;8.90;;
75220;SDS011;63802;53.232;6.570;2023-08-06T04:15:00;21.42;;;10.55;;
75220;SDS011;63802;53.232;6.570;2023-08-06T04:17:26;19.60;;;9.70;;
75220;SDS011;63802;53.232;6.570;2023-08-06T04:19:52;20.48;;;10.35;;
75220;SDS011;63802;53.232;6.570;2023-08-06T04:22:18;20.02;;;9.75;;
75220;SDS011;63802;53.232;6.570;2023-08-06T04:24:45;20.67;;;9.48;;
75220;SDS011;63802;53.232;6.570;2023-08-06T04:27:10;18.33;;;9.77;;
75220;SDS011;63802;53.232;6.570;2023-08-06T04:29:37;23.20;;;9.80;;
75220;SDS011;63802;53.232;6.570;2023-08-06T04:32:09;17.75;;;9.32;;
75220;SDS011;63802;53.232;6.570;2023-08-06T04:34:35;21.42;;;10.50;;
75220;SDS011;63802;53.232;6.570;2023-08-06T04:37:04;19.83;;;9.02;;
75220;SDS011;63802;53.232;6.570;2023-08-06T04:39:30;24.65;;;9.57;;
75220;SDS011;63802;53.232;6.570;2023-08-06T04:41:56;17.13;;;8.68;;
75220;SDS011;63802;53.232;6.570;2023-08-06T04:44:22;19.20;;;9.10;;
75220;SDS011;63802;53.232;6.570;2023-08-06T04:46:48;17.58;;;8.93;;
75220;SDS011;63802;53.232;6.570;2023-08-06T04:49:14;15.32;;;8.77;;
75220;SDS011;63802;53.232;6.570;2023-08-06T04:51:40;18.65;;;9.20;;
75220;SDS011;63802;53.232;6.570;2023-08-06T04:54:08;14.88;;;7.88;;
75220;SDS011;63802;53.232;6.570;2023-08-06T04:56:35;17.42;;;7.95;;
75220;SDS011;63802;53.232;6.570;2023-08-06T04:59:00;18.05;;;8.02;;
75220;SDS011;63802;53.232;6.570;2023-08-06T05:01:25;17.70;;;8.32;;
75220;SDS011;63802;53.232;6.570;2023-08-06T05:03:51;17.20;;;9.00;;
75220;SDS011;63802;53.232;6.570;2023-08-06T05:06:17;20.40;;;9.43;;
75220;SDS011;63802;53.232;6.570;2023-08-06T05:08:42;17.13;;;9.07;;
75220;SDS011;63802;53.232;6.570;2023-08-06T05:11:08;17.02;;;7.68;;
75220;SDS011;63802;53.232;6.570;2023-08-06T05:13:34;20.60;;;8.85;;
75220;SDS011;63802;53.232;6.570;2023-08-06T05:16:00;16.73;;;8.55;;
75220;SDS011;63802;53.232;6.570;2023-08-06T05:18:25;21.55;;;9.77;;
75220;SDS011;63802;53.232;6.570;2023-08-06T05:20:51;19.02;;;9.52;;
75220;SDS011;63802;53.232;6.570;2023-08-06T05:23:16;20.05;;;9.43;;
75220;SDS011;63802;53.232;6.570;2023-08-06T05:25:42;18.90;;;9.63;;
75220;SDS011;63802;53.232;6.570;2023-08-06T05:28:07;17.92;;;9.02;;
75220;SDS011;63802;53.232;6.570;2023-08-06T05:30:32;20.30;;;9.63;;
75220;SDS011;63802;53.232;6.570;2023-08-06T05:32:58;18.38;;;9.00;;
75220;SDS011;63802;53.232;6.570;2023-08-06T05:35:23;17.38;;;8.70;;
75220;SDS011;63802;53.232;6.570;2023-08-06T05:37:52;19.02;;;9.30;;
75220;SDS011;63802;53.232;6.570;2023-08-06T05:40:18;19.85;;;9.45;;
75220;SDS011;63802;53.232;6.570;2023-08-06T05:42:44;18.17;;;8.65;;
75220;SDS011;63802;53.232;6.570;2023-08-06T05:45:10;19.77;;;9.30;;
75220;SDS011;63802;53.232;6.570;2023-08-06T05:47:36;18.98;;;9.32;;
75220;SDS011;63802;53.232;6.570;2023-08-06T05:50:01;18.67;;;8.75;;
75220;SDS011;63802;53.232;6.570;2023-08-06T05:52:27;20.83;;;9.80;;
75220;SDS011;63802;53.232;6.570;2023-08-06T05:54:52;16.75;;;8.00;;
75220;SDS011;63802;53.232;6.570;2023-08-06T05:57:18;17.10;;;8.75;;
75220;SDS011;63802;53.232;6.570;2023-08-06T05:59:43;14.40;;;7.68;;
75220;SDS011;63802;53.232;6.570;2023-08-06T06:02:09;13.52;;;7.43;;
75220;SDS011;63802;53.232;6.570;2023-08-06T06:04:35;17.75;;;7.20;;
75220;SDS011;63802;53.232;6.570;2023-08-06T06:07:02;12.82;;;6.25;;
75220;SDS011;63802;53.232;6.570;2023-08-06T06:09:28;10.70;;;6.53;;
75220;SDS011;63802;53.232;6.570;2023-08-06T06:11:54;11.48;;;6.22;;
75220;SDS011;63802;53.232;6.570;2023-08-06T06:14:19;12.88;;;6.25;;
75220;SDS011;63802;53.232;6.570;2023-08-06T06:16:45;12.20;;;6.20;;
75220;SDS011;63802;53.232;6.570;2023-08-06T06:19:11;11.20;;;6.15;;
75220;SDS011;63802;53.232;6.570;2023-08-06T06:21:37;11.85;;;5.50;;
75220;SDS011;63802;53.232;6.570;2023-08-06T06:24:04;10.60;;;5.88;;
75220;SDS011;63802;53.232;6.570;2023-08-06T06:26:33;10.77;;;5.57;;
75220;SDS011;63802;53.232;6.570;2023-08-06T06:28:58;9.43;;;5.00;;
75220;SDS011;63802;53.232;6.570;2023-08-06T06:31:24;9.63;;;5.22;;
75220;SDS011;63802;53.232;6.570;2023-08-06T06:33:50;9.32;;;5.50;;
75220;SDS011;63802;53.232;6.570;2023-08-06T06:36:16;9.35;;;5.45;;
75220;SDS011;63802;53.232;6.570;2023-08-06T06:38:42;10.40;;;5.32;;
75220;SDS011;63802;53.232;6.570;2023-08-06T06:41:07;8.70;;;4.85;;
75220;SDS011;63802;53.232;6.570;2023-08-06T06:43:33;10.48;;;5.10;;
75220;SDS011;63802;53.232;6.570;2023-08-06T06:45:59;8.60;;;5.03;;
75220;SDS011;63802;53.232;6.570;2023-08-06T06:48:26;8.35;;;5.13;;
75220;SDS011;63802;53.232;6.570;2023-08-06T06:50:52;9.82;;;5.03;;
75220;SDS011;63802;53.232;6.570;2023-08-06T06:53:17;10.75;;;4.93;;
75220;SDS011;63802;53.232;6.570;2023-08-06T06:55:43;13.73;;;5.07;;
75220;SDS011;63802;53.232;6.570;2023-08-06T06:58:08;8.63;;;4.57;;
75220;SDS011;63802;53.232;6.570;2023-08-06T07:00:37;8.77;;;4.10;;
75220;SDS011;63802;53.232;6.570;2023-08-06T07:03:04;8.02;;;4.03;;
75220;SDS011;63802;53.232;6.570;2023-08-06T07:05:29;8.95;;;4.90;;
75220;SDS011;63802;53.232;6.570;2023-08-06T07:07:55;8.85;;;4.20;;
75220;SDS011;63802;53.232;6.570;2023-08-06T07:10:20;7.10;;;4.20;;
75220;SDS011;63802;53.232;6.570;2023-08-06T07:12:49;9.25;;;4.30;;
75220;SDS011;63802;53.232;6.570;2023-08-06T07:15:15;9.18;;;4.50;;
75220;SDS011;63802;53.232;6.570;2023-08-06T07:17:42;7.70;;;4.32;;
75220;SDS011;63802;53.232;6.570;2023-08-06T07:20:08;9.27;;;4.45;;
75220;SDS011;63802;53.232;6.570;2023-08-06T07:22:34;5.13;;;3.60;;
75220;SDS011;63802;53.232;6.570;2023-08-06T07:25:00;8.27;;;4.55;;
75220;SDS011;63802;53.232;6.570;2023-08-06T07:27:25;8.73;;;4.32;;
75220;SDS011;63802;53.232;6.570;2023-08-06T07:29:51;7.93;;;4.43;;
75220;SDS011;63802;53.232;6.570;2023-08-06T07:32:16;11.77;;;4.65;;
75220;SDS011;63802;53.232;6.570;2023-08-06T07:34:42;6.32;;;3.92;;
75220;SDS011;63802;53.232;6.570;2023-08-06T07:37:07;9.15;;;4.25;;
75220;SDS011;63802;53.232;6.570;2023-08-06T07:39:33;7.07;;;4.35;;
75220;SDS011;63802;53.232;6.570;2023-08-06T07:41:58;7.00;;;4.18;;
75220;SDS011;63802;53.232;6.570;2023-08-06T07:44:24;6.78;;;4.13;;
75220;SDS011;63802;53.232;6.570;2023-08-06T07:46:50;10.52;;;4.20;;
75220;SDS011;63802;53.232;6.570;2023-08-06T07:49:15;8.20;;;4.20;;
75220;SDS011;63802;53.232;6.570;2023-08-06T07:51:43;6.53;;;3.90;;
75220;SDS011;63802;53.232;6.570;2023-08-06T07:54:09;7.50;;;4.00;;
75220;SDS011;63802;53.232;6.570;2023-08-06T07:56:34;6.82;;;4.13;;
75220;SDS011;63802;53.232;6.570;2023-08-06T07:59:01;7.80;;;4.13;;
75220;SDS011;63802;53.232;6.570;2023-08-06T08:01:27;7.10;;;4.07;;
75220;SDS011;63802;53.232;6.570;2023-08-06T08:03:52;7.68;;;3.85;;
75220;SDS011;63802;53.232;6.570;2023-08-06T08:06:18;7.07;;;3.72;;
75220;SDS011;63802;53.232;6.570;2023-08-06T08:08:44;7.25;;;3.60;;
75220;SDS011;63802;53.232;6.570;2023-08-06T08:11:10;7.78;;;4.00;;
75220;SDS011;63802;53.232;6.570;2023-08-06T08:13:35;6.53;;;3.47;;
75220;SDS011;63802;53.232;6.570;2023-08-06T08:16:01;5.80;;;3.40;;
75220;SDS011;63802;53.232;6.570;2023-08-06T08:18:27;6.95;;;3.85;;
75220;SDS011;63802;53.232;6.570;2023-08-06T08:20:53;6.93;;;3.78;;
75220;SDS011;63802;53.232;6.570;2023-08-06T08:23:18;5.60;;;3.10;;
75220;SDS011;63802;53.232;6.570;2023-08-06T08:25:44;6.32;;;3.33;;
75220;SDS011;63802;53.232;6.570;2023-08-06T08:28:09;4.63;;;3.10;;
75220;SDS011;63802;53.232;6.570;2023-08-06T08:30:35;6.65;;;3.50;;
75220;SDS011;63802;53.232;6.570;2023-08-06T08:33:01;6.70;;;3.42;;
75220;SDS011;63802;53.232;6.570;2023-08-06T08:35:26;7.30;;;3.63;;
75220;SDS011;63802;53.232;6.570;2023-08-06T08:37:52;5.28;;;3.15;;
75220;SDS011;63802;53.232;6.570;2023-08-06T08:40:32;7.05;;;3.10;;
75220;SDS011;63802;53.232;6.570;2023-08-06T08:42:58;5.40;;;2.78;;
75220;SDS011;63802;53.232;6.570;2023-08-06T08:45:26;4.78;;;2.90;;
75220;SDS011;63802;53.232;6.570;2023-08-06T08:47:53;4.78;;;3.03;;
75220;SDS011;63802;53.232;6.570;2023-08-06T08:50:19;4.70;;;2.72;;
75220;SDS011;63802;53.232;6.570;2023-08-06T08:52:46;4.22;;;2.50;;
75220;SDS011;63802;53.232;6.570;2023-08-06T08:55:14;8.90;;;2.90;;
75220;SDS011;63802;53.232;6.570;2023-08-06T08:57:40;3.60;;;2.40;;
75220;SDS011;63802;53.232;6.570;2023-08-06T09:00:06;5.07;;;2.30;;
75220;SDS011;63802;53.232;6.570;2023-08-06T09:02:32;4.80;;;2.53;;
75220;SDS011;63802;53.232;6.570;2023-08-06T09:04:59;3.50;;;2.38;;
75220;SDS011;63802;53.232;6.570;2023-08-06T09:07:27;6.00;;;2.78;;
75220;SDS011;63802;53.232;6.570;2023-08-06T09:09:57;4.15;;;2.30;;
75220;SDS011;63802;53.232;6.570;2023-08-06T09:12:24;5.85;;;2.30;;
75220;SDS011;63802;53.232;6.570;2023-08-06T09:14:50;6.15;;;2.55;;
75220;SDS011;63802;53.232;6.570;2023-08-06T09:17:16;5.18;;;2.20;;
75220;SDS011;63802;53.232;6.570;2023-08-06T09:19:44;4.03;;;2.60;;
75220;SDS011;63802;53.232;6.570;2023-08-06T09:22:12;4.22;;;2.00;;
75220;SDS011;63802;53.232;6.570;2023-08-06T09:24:42;4.18;;;2.30;;
75220;SDS011;63802;53.232;6.570;2023-08-06T09:29:45;4.07;;;1.90;;
75220;SDS011;63802;53.232;6.570;2023-08-06T09:32:11;2.55;;;2.00;;
75220;SDS011;63802;53.232;6.570;2023-08-06T09:34:39;2.60;;;1.90;;
75220;SDS011;63802;53.232;6.570;2023-08-06T09:37:08;3.60;;;2.00;;
75220;SDS011;63802;53.232;6.570;2023-08-06T09:39:36;2.60;;;1.80;;
75220;SDS011;63802;53.232;6.570;2023-08-06T09:42:03;3.65;;;2.03;;
75220;SDS011;63802;53.232;6.570;2023-08-06T09:44:30;4.78;;;2.08;;
75220;SDS011;63802;53.232;6.570;2023-08-06T09:46:57;4.20;;;2.17;;
75220;SDS011;63802;53.232;6.570;2023-08-06T09:49:28;5.75;;;1.90;;
75220;SDS011;63802;53.232;6.570;2023-08-06T09:52:08;3.15;;;1.90;;
75220;SDS011;63802;53.232;6.570;2023-08-06T09:57:02;3.20;;;2.08;;
75220;SDS011;63802;53.232;6.570;2023-08-06T09:59:35;4.70;;;2.05;;
75220;SDS011;63802;53.232;6.570;2023-08-06T10:02:02;2.83;;;1.92;;
75220;SDS011;63802;53.232;6.570;2023-08-06T10:04:30;5.93;;;2.75;;
75220;SDS011;63802;53.232;6.570;2023-08-06T10:06:56;3.53;;;1.90;;
75220;SDS011;63802;53.232;6.570;2023-08-06T10:09:24;3.25;;;2.03;;
75220;SDS011;63802;53.232;6.570;2023-08-06T10:11:51;2.97;;;1.60;;
75220;SDS011;63802;53.232;6.570;2023-08-06T10:14:21;3.42;;;1.75;;
75220;SDS011;63802;53.232;6.570;2023-08-06T10:16:51;2.20;;;1.70;;
75220;SDS011;63802;53.232;6.570;2023-08-06T10:19:17;3.75;;;2.00;;
75220;SDS011;63802;53.232;6.570;2023-08-06T10:24:53;4.68;;;2.03;;
75220;SDS011;63802;53.232;6.570;2023-08-06T10:29:54;3.63;;;1.85;;
75220;SDS011;63802;53.232;6.570;2023-08-06T10:32:20;5.22;;;1.90;;
75220;SDS011;63802;53.232;6.570;2023-08-06T10:37:35;3.80;;;2.10;;
75220;SDS011;63802;53.232;6.570;2023-08-06T10:40:02;3.60;;;2.17;;
75220;SDS011;63802;53.232;6.570;2023-08-06T10:42:28;2.90;;;2.20;;
75220;SDS011;63802;53.232;6.570;2023-08-06T10:45:16;2.88;;;1.88;;
75220;SDS011;63802;53.232;6.570;2023-08-06T10:47:42;2.42;;;1.83;;
75220;SDS011;63802;53.232;6.570;2023-08-06T10:50:10;3.13;;;1.92;;
75220;SDS011;63802;53.232;6.570;2023-08-06T10:52:42;2.58;;;1.70;;
75220;SDS011;63802;53.232;6.570;2023-08-06T10:55:09;2.17;;;1.70;;
75220;SDS011;63802;53.232;6.570;2023-08-06T10:57:35;2.47;;;1.52;;
75220;SDS011;63802;53.232;6.570;2023-08-06T11:00:01;2.40;;;1.90;;
75220;SDS011;63802;53.232;6.570;2023-08-06T11:02:29;2.17;;;1.70;;
75220;SDS011;63802;53.232;6.570;2023-08-06T11:05:04;2.47;;;1.65;;
75220;SDS011;63802;53.232;6.570;2023-08-06T11:07:30;4.20;;;1.83;;
75220;SDS011;63802;53.232;6.570;2023-08-06T11:10:03;3.50;;;2.03;;
75220;SDS011;63802;53.232;6.570;2023-08-06T11:12:31;2.53;;;1.70;;
75220;SDS011;63802;53.232;6.570;2023-08-06T11:14:56;3.95;;;1.83;;
75220;SDS011;63802;53.232;6.570;2023-08-06T11:17:22;2.85;;;1.63;;
75220;SDS011;63802;53.232;6.570;2023-08-06T11:19:47;5.18;;;1.65;;
75220;SDS011;63802;53.232;6.570;2023-08-06T11:22:14;3.80;;;2.00;;
75220;SDS011;63802;53.232;6.570;2023-08-06T11:24:41;6.50;;;2.00;;
75220;SDS011;63802;53.232;6.570;2023-08-06T11:27:13;4.28;;;2.20;;
75220;SDS011;63802;53.232;6.570;2023-08-06T11:29:40;4.15;;;1.98;;
75220;SDS011;63802;53.232;6.570;2023-08-06T11:32:06;4.18;;;1.98;;
75220;SDS011;63802;53.232;6.570;2023-08-06T11:34:38;4.22;;;2.13;;
75220;SDS011;63802;53.232;6.570;2023-08-06T11:37:04;3.60;;;1.60;;
75220;SDS011;63802;53.232;6.570;2023-08-06T11:39:37;4.65;;;2.00;;
75220;SDS011;63802;53.232;6.570;2023-08-06T11:42:04;3.60;;;2.00;;
75220;SDS011;63802;53.232;6.570;2023-08-06T11:44:31;4.53;;;1.80;;
75220;SDS011;63802;53.232;6.570;2023-08-06T11:46:59;2.28;;;1.80;;
75220;SDS011;63802;53.232;6.570;2023-08-06T11:54:35;3.33;;;1.88;;
75220;SDS011;63802;53.232;6.570;2023-08-06T11:57:02;2.20;;;1.83;;
75220;SDS011;63802;53.232;6.570;2023-08-06T11:59:30;3.47;;;2.00;;
75220;SDS011;63802;53.232;6.570;2023-08-06T12:01:55;2.88;;;1.98;;
75220;SDS011;63802;53.232;6.570;2023-08-06T12:04:21;3.70;;;2.00;;
75220;SDS011;63802;53.232;6.570;2023-08-06T12:06:46;2.95;;;2.00;;
75220;SDS011;63802;53.232;6.570;2023-08-06T12:09:12;3.50;;;1.90;;
75220;SDS011;63802;53.232;6.570;2023-08-06T12:11:41;3.08;;;1.85;;
75220;SDS011;63802;53.232;6.570;2023-08-06T12:14:06;2.42;;;1.90;;
75220;SDS011;63802;53.232;6.570;2023-08-06T12:16:32;2.10;;;1.85;;
75220;SDS011;63802;53.232;6.570;2023-08-06T12:18:58;3.78;;;1.73;;
75220;SDS011;63802;53.232;6.570;2023-08-06T12:21:24;3.72;;;2.00;;
75220;SDS011;63802;53.232;6.570;2023-08-06T12:23:52;3.40;;;1.90;;
75220;SDS011;63802;53.232;6.570;2023-08-06T12:26:18;2.75;;;1.95;;
75220;SDS011;63802;53.232;6.570;2023-08-06T12:28:43;2.85;;;1.98;;
75220;SDS011;63802;53.232;6.570;2023-08-06T12:31:09;3.33;;;2.00;;
75220;SDS011;63802;53.232;6.570;2023-08-06T12:33:37;2.28;;;2.00;;
75220;SDS011;63802;53.232;6.570;2023-08-06T12:36:03;2.15;;;1.80;;
75220;SDS011;63802;53.232;6.570;2023-08-06T12:38:29;3.72;;;1.60;;
75220;SDS011;63802;53.232;6.570;2023-08-06T12:40:59;3.30;;;2.03;;
75220;SDS011;63802;53.232;6.570;2023-08-06T12:43:24;3.35;;;1.90;;
75220;SDS011;63802;53.232;6.570;2023-08-06T12:45:50;3.33;;;1.88;;
75220;SDS011;63802;53.232;6.570;2023-08-06T12:48:16;2.65;;;2.08;;
75220;SDS011;63802;53.232;6.570;2023-08-06T12:50:42;4.05;;;2.17;;
75220;SDS011;63802;53.232;6.570;2023-08-06T12:53:07;2.88;;;1.80;;
75220;SDS011;63802;53.232;6.570;2023-08-06T12:55:32;3.42;;;1.80;;
75220;SDS011;63802;53.232;6.570;2023-08-06T12:57:58;2.83;;;1.73;;
75220;SDS011;63802;53.232;6.570;2023-08-06T13:00:24;3.13;;;1.75;;
75220;SDS011;63802;53.232;6.570;2023-08-06T13:02:51;2.20;;;1.70;;
75220;SDS011;63802;53.232;6.570;2023-08-06T13:05:16;2.67;;;1.90;;
75220;SDS011;63802;53.232;6.570;2023-08-06T13:07:42;2.42;;;1.90;;
75220;SDS011;63802;53.232;6.570;2023-08-06T13:10:07;2.63;;;1.70;;
75220;SDS011;63802;53.232;6.570;2023-08-06T13:12:33;5.68;;;2.20;;
75220;SDS011;63802;53.232;6.570;2023-08-06T13:14:59;1.92;;;1.70;;
75220;SDS011;63802;53.232;6.570;2023-08-06T13:17:24;4.90;;;2.08;;
75220;SDS011;63802;53.232;6.570;2023-08-06T13:19:50;3.78;;;1.88;;
75220;SDS011;63802;53.232;6.570;2023-08-06T13:22:15;2.40;;;1.80;;
75220;SDS011;63802;53.232;6.570;2023-08-06T13:24:41;2.45;;;1.60;;
75220;SDS011;63802;53.232;6.570;2023-08-06T13:27:06;3.92;;;2.00;;
75220;SDS011;63802;53.232;6.570;2023-08-06T13:29:32;2.67;;;1.70;;
75220;SDS011;63802;53.232;6.570;2023-08-06T13:31:57;3.15;;;1.80;;
75220;SDS011;63802;53.232;6.570;2023-08-06T13:34:23;3.03;;;1.83;;
75220;SDS011;63802;53.232;6.570;2023-08-06T13:36:48;4.30;;;1.92;;
75220;SDS011;63802;53.232;6.570;2023-08-06T13:39:14;2.58;;;1.63;;
75220;SDS011;63802;53.232;6.570;2023-08-06T13:41:42;3.08;;;1.95;;
75220;SDS011;63802;53.232;6.570;2023-08-06T13:44:08;1.88;;;1.67;;
75220;SDS011;63802;53.232;6.570;2023-08-06T13:46:34;2.25;;;1.80;;
75220;SDS011;63802;53.232;6.570;2023-08-06T13:49:00;4.03;;;1.92;;
75220;SDS011;63802;53.232;6.570;2023-08-06T13:51:25;4.05;;;1.63;;
75220;SDS011;63802;53.232;6.570;2023-08-06T13:53:51;2.75;;;1.80;;
75220;SDS011;63802;53.232;6.570;2023-08-06T13:56:17;2.00;;;1.80;;
75220;SDS011;63802;53.232;6.570;2023-08-06T13:58:43;2.45;;;1.85;;
75220;SDS011;63802;53.232;6.570;2023-08-06T14:01:12;2.25;;;1.58;;
75220;SDS011;63802;53.232;6.570;2023-08-06T14:03:38;2.40;;;1.83;;
75220;SDS011;63802;53.232;6.570;2023-08-06T14:06:03;3.08;;;1.73;;
75220;SDS011;63802;53.232;6.570;2023-08-06T14:08:29;4.57;;;1.65;;
75220;SDS011;63802;53.232;6.570;2023-08-06T14:10:55;2.30;;;1.88;;
75220;SDS011;63802;53.232;6.570;2023-08-06T14:13:21;3.38;;;1.80;;
75220;SDS011;63802;53.232;6.570;2023-08-06T14:15:47;2.42;;;1.90;;
75220;SDS011;63802;53.232;6.570;2023-08-06T14:18:13;1.60;;;1.50;;
75220;SDS011;63802;53.232;6.570;2023-08-06T14:20:39;3.20;;;1.92;;
75220;SDS011;63802;53.232;6.570;2023-08-06T14:23:05;3.65;;;1.80;;
75220;SDS011;63802;53.232;6.570;2023-08-06T14:25:31;2.55;;;1.77;;
75220;SDS011;63802;53.232;6.570;2023-08-06T14:27:56;2.90;;;1.80;;
75220;SDS011;63802;53.232;6.570;2023-08-06T14:30:22;3.97;;;1.67;;
75220;SDS011;63802;53.232;6.570;2023-08-06T14:32:47;2.80;;;1.80;;
75220;SDS011;63802;53.232;6.570;2023-08-06T14:35:13;2.53;;;1.70;;
75220;SDS011;63802;53.232;6.570;2023-08-06T14:37:39;2.78;;;1.67;;
75220;SDS011;63802;53.232;6.570;2023-08-06T14:40:06;2.08;;;1.73;;
75220;SDS011;63802;53.232;6.570;2023-08-06T14:42:32;2.45;;;2.05;;
75220;SDS011;63802;53.232;6.570;2023-08-06T14:44:58;3.30;;;1.60;;
75220;SDS011;63802;53.232;6.570;2023-08-06T14:47:23;2.38;;;1.55;;
75220;SDS011;63802;53.232;6.570;2023-08-06T14:49:49;2.92;;;1.63;;
75220;SDS011;63802;53.232;6.570;2023-08-06T14:52:16;4.15;;;1.70;;
75220;SDS011;63802;53.232;6.570;2023-08-06T14:54:41;2.35;;;1.63;;